Time;durP1;ratioP1;P1;durP2;ratioP2;P2;SDS_P1;SDS_P2;PMS_P1;PMS_P2;Temp;Humidity;BMP_temperature;BMP_pressure;BME280_temperature;BME280_humidity;BME280_pressure;Samples;Min_cycle;Max_cycle;Signal;HPM_P1;HPM_P2
2023/06/15 00:03:26;;;;;;;37.75;20.75;;;;;;;;;;8363169;28;20405;-93
2023/06/15 00:07:34;;;;;;;38.63;20.85;;;;;;;;;;8348994;28;20552;-93
2023/06/15 00:11:38;;;;;;;47.30;20.23;;;;;;;;;;8336588;28;20448;-93
2023/06/15 00:15:41;;;;;;;37.42;19.08;;;;;;;;;;8337288;28;20069;-94
2023/06/15 00:19:46;;;;;;;43.75;20.75;;;;;;;;;;8330893;28;20499;-92
2023/06/15 00:23:50;;;;;;;60.15;21.27;;;;;;;;;;8356175;28;20557;-93
2023/06/15 00:27:53;;;;;;;64.43;21.05;;;;;;;;;;8328687;28;20133;-93
2023/06/15 00:31:56;;;;;;;52.28;20.67;;;;;;;;;;8317927;28;20053;-93
2023/06/15 00:36:00;;;;;;;58.17;20.88;;;;;;;;;;8335847;28;20505;-94
2023/06/15 00:40:07;;;;;;;79.38;22.30;;;;;;;;;;8335888;28;20119;-93
2023/06/15 00:44:11;;;;;;;69.85;22.42;;;;;;;;;;8349098;28;20490;-93
2023/06/15 00:48:15;;;;;;;83.35;21.50;;;;;;;;;;8336889;28;20107;-93
2023/06/15 00:52:18;;;;;;;72.95;22.25;;;;;;;;;;8323304;28;20107;-94
2023/06/15 00:56:22;;;;;;;73.53;23.13;;;;;;;;;;8335554;28;20072;-93
2023/06/15 01:00:25;;;;;;;78.45;21.92;;;;;;;;;;8318491;28;20465;-93
2023/06/15 01:04:28;;;;;;;114.70;22.73;;;;;;;;;;8335874;28;20141;-94
2023/06/15 01:08:33;;;;;;;83.15;20.88;;;;;;;;;;8335045;28;20095;-94
2023/06/15 01:12:40;;;;;;;76.10;21.42;;;;;;;;;;8334286;28;20112;-94
2023/06/15 01:16:52;;;;;;;70.15;22.42;;;;;;;;;;8334335;28;20041;-93
2023/06/15 01:20:56;;;;;;;72.07;21.92;;;;;;;;;;8317759;28;20084;-93
2023/06/15 01:25:06;;;;;;;72.93;23.40;;;;;;;;;;8359001;28;20060;-93
2023/06/15 01:29:12;;;;;;;46.72;19.10;;;;;;;;;;8353888;28;20505;-93
2023/06/15 01:33:16;;;;;;;55.60;21.73;;;;;;;;;;8366908;28;20436;-93
2023/06/15 01:37:21;;;;;;;51.08;22.25;;;;;;;;;;8349030;28;20053;-93
2023/06/15 01:41:33;;;;;;;44.65;21.23;;;;;;;;;;8334671;28;20056;-93
2023/06/15 01:45:46;;;;;;;43.00;21.23;;;;;;;;;;8353391;28;20071;-94
2023/06/15 01:49:55;;;;;;;41.25;20.50;;;;;;;;;;8365418;28;20056;-93
2023/06/15 01:54:00;;;;;;;41.42;21.17;;;;;;;;;;8346856;28;20061;-93
2023/06/15 01:58:05;;;;;;;43.38;21.23;;;;;;;;;;8363313;28;20052;-93
2023/06/15 02:02:10;;;;;;;42.33;20.50;;;;;;;;;;8365687;28;20252;-93
2023/06/15 02:06:15;;;;;;;46.78;21.60;;;;;;;;;;8365848;28;20045;-93
2023/06/15 02:10:19;;;;;;;46.90;20.67;;;;;;;;;;8352456;28;20531;-93
2023/06/15 02:14:28;;;;;;;46.22;21.70;;;;;;;;;;8365788;28;20051;-93
2023/06/15 02:18:32;;;;;;;51.42;22.55;;;;;;;;;;8352334;28;20045;-93
2023/06/15 02:22:36;;;;;;;49.75;22.77;;;;;;;;;;8367742;28;20057;-92
2023/06/15 02:26:41;;;;;;;53.30;23.00;;;;;;;;;;8359901;28;20203;-93
2023/06/15 02:30:45;;;;;;;55.35;23.85;;;;;;;;;;8371021;28;20052;-93
2023/06/15 02:34:51;;;;;;;71.25;25.02;;;;;;;;;;8360530;28;20048;-94
2023/06/15 02:38:54;;;;;;;69.65;24.75;;;;;;;;;;8372129;28;20041;-93
2023/06/15 02:42:57;;;;;;;131.77;26.23;;;;;;;;;;8371821;28;20075;-93
2023/06/15 02:47:01;;;;;;;94.00;24.75;;;;;;;;;;8371129;28;20151;-93
2023/06/15 02:51:05;;;;;;;54.67;22.70;;;;;;;;;;8371335;28;20190;-93
2023/06/15 02:55:09;;;;;;;50.05;22.80;;;;;;;;;;8357449;28;20489;-93
2023/06/15 02:59:13;;;;;;;44.30;21.00;;;;;;;;;;8370139;28;20512;-92
2023/06/15 03:03:22;;;;;;;45.78;21.38;;;;;;;;;;8356887;28;20120;-93
2023/06/15 03:07:30;;;;;;;64.80;22.20;;;;;;;;;;8371079;28;20134;-93
2023/06/15 03:11:33;;;;;;;78.60;25.23;;;;;;;;;;8370138;28;20048;-93
2023/06/15 03:15:38;;;;;;;59.40;24.92;;;;;;;;;;8357232;28;20045;-92
2023/06/15 03:19:41;;;;;;;42.75;23.20;;;;;;;;;;8369502;28;20120;-93
2023/06/15 03:23:45;;;;;;;40.55;22.13;;;;;;;;;;8370060;28;20576;-93
2023/06/15 03:27:49;;;;;;;42.38;22.58;;;;;;;;;;8369436;28;20060;-93
2023/06/15 03:31:52;;;;;;;44.75;24.90;;;;;;;;;;8369596;28;20112;-92
2023/06/15 03:35:55;;;;;;;46.63;25.98;;;;;;;;;;8369879;28;20520;-93
2023/06/15 03:40:00;;;;;;;33.85;21.45;;;;;;;;;;8369017;28;20102;-92
2023/06/15 03:44:03;;;;;;;34.60;20.65;;;;;;;;;;8342782;28;20123;-93
2023/06/15 03:48:05;;;;;;;36.30;22.38;;;;;;;;;;8351522;28;20076;-93
2023/06/15 03:52:09;;;;;;;37.35;21.88;;;;;;;;;;8363538;28;20140;-93
2023/06/15 03:56:13;;;;;;;33.20;18.80;;;;;;;;;;8361340;28;20124;-94
2023/06/15 04:00:19;;;;;;;30.73;19.25;;;;;;;;;;8368824;28;20110;-92
2023/06/15 04:04:22;;;;;;;30.70;17.92;;;;;;;;;;8352305;28;20049;-94
2023/06/15 04:08:25;;;;;;;30.63;18.80;;;;;;;;;;8355041;28;20037;-93
2023/06/15 04:12:30;;;;;;;31.10;18.15;;;;;;;;;;8368758;28;20094;-92
2023/06/15 04:16:34;;;;;;;29.20;18.05;;;;;;;;;;8356428;28;20056;-92
2023/06/15 04:20:37;;;;;;;33.17;19.77;;;;;;;;;;8368443;28;20044;-93
2023/06/15 04:24:40;;;;;;;33.10;20.73;;;;;;;;;;8343972;28;20065;-94
2023/06/15 04:28:45;;;;;;;34.95;19.45;;;;;;;;;;8361626;28;20049;-93
2023/06/15 04:32:57;;;;;;;33.95;18.35;;;;;;;;;;8355409;28;20112;-93
2023/06/15 04:37:00;;;;;;;;;;;;;;;;;;8367570;28;20052;-93
2023/06/15 04:41:07;;;;;;;34.53;19.25;;;;;;;;;;8355679;28;19927;-93
2023/06/15 04:45:13;;;;;;;34.97;20.02;;;;;;;;;;8348489;28;20137;-94
2023/06/15 04:49:17;;;;;;;35.47;19.70;;;;;;;;;;8367162;28;20431;-93
2023/06/15 04:53:22;;;;;;;35.10;19.30;;;;;;;;;;8353850;28;20068;-93
2023/06/15 04:57:25;;;;;;;32.72;19.70;;;;;;;;;;8357340;28;20386;-93
2023/06/15 05:01:30;;;;;;;31.02;18.88;;;;;;;;;;8360249;28;20401;-95
2023/06/15 05:05:33;;;;;;;37.85;21.00;;;;;;;;;;8357427;28;20404;-93
2023/06/15 05:09:37;;;;;;;39.85;22.00;;;;;;;;;;8360190;28;20061;-93
2023/06/15 05:13:41;;;;;;;42.40;23.55;;;;;;;;;;8351508;28;20060;-93
2023/06/15 05:17:46;;;;;;;39.78;22.05;;;;;;;;;;8367565;28;20047;-92
2023/06/15 05:21:51;;;;;;;34.65;21.05;;;;;;;;;;8352798;28;20090;-93
2023/06/15 05:25:54;;;;;;;30.35;19.25;;;;;;;;;;8353432;28;20044;-93
2023/06/15 05:29:58;;;;;;;30.45;19.42;;;;;;;;;;8352904;28;20048;-93
2023/06/15 05:34:02;;;;;;;32.05;19.90;;;;;;;;;;8366258;28;20122;-93
2023/06/15 05:38:05;;;;;;;29.85;19.45;;;;;;;;;;8367694;28;20099;-93
2023/06/15 05:42:09;;;;;;;28.35;18.98;;;;;;;;;;8365752;28;20036;-92
2023/06/15 05:46:13;;;;;;;30.23;19.42;;;;;;;;;;8367253;28;20542;-93
2023/06/15 05:50:18;;;;;;;25.52;16.52;;;;;;;;;;8352437;28;20094;-94
2023/06/15 05:54:21;;;;;;;26.80;16.90;;;;;;;;;;8353098;28;20052;-93
2023/06/15 05:58:26;;;;;;;25.40;17.42;;;;;;;;;;8352347;28;20124;-93
2023/06/15 06:02:29;;;;;;;23.73;16.02;;;;;;;;;;8366042;28;20072;-93
2023/06/15 06:06:33;;;;;;;23.38;14.35;;;;;;;;;;8348608;28;20049;-93
2023/06/15 06:10:36;;;;;;;22.35;14.90;;;;;;;;;;8356907;28;20127;-93
2023/06/15 06:14:40;;;;;;;15.80;10.73;;;;;;;;;;8366170;28;20047;-94
2023/06/15 06:18:43;;;;;;;17.23;12.00;;;;;;;;;;8365838;28;20052;-93
2023/06/15 06:22:50;;;;;;;15.23;10.60;;;;;;;;;;8366266;28;20064;-94
2023/06/15 06:26:53;;;;;;;14.00;9.65;;;;;;;;;;8352363;28;20454;-93
2023/06/15 06:30:59;;;;;;;14.10;10.60;;;;;;;;;;8364747;28;20417;-93
2023/06/15 06:35:03;;;;;;;12.38;9.48;;;;;;;;;;8360575;28;20064;-93
2023/06/15 06:39:09;;;;;;;13.50;9.88;;;;;;;;;;8351465;28;20064;-93
2023/06/15 06:43:12;;;;;;;14.65;9.82;;;;;;;;;;8364687;28;20392;-93
2023/06/15 06:47:15;;;;;;;14.90;10.15;;;;;;;;;;8365074;28;20128;-92
2023/06/15 06:51:19;;;;;;;15.80;10.43;;;;;;;;;;8351525;28;20059;-92
2023/06/15 06:55:23;;;;;;;14.30;10.60;;;;;;;;;;8350747;28;20053;-93
2023/06/15 06:59:26;;;;;;;17.55;14.45;;;;;;;;;;8324248;28;20550;-92
2023/06/15 07:03:31;;;;;;;18.88;13.45;;;;;;;;;;8364147;28;20057;-92
2023/06/15 07:07:37;;;;;;;17.80;12.70;;;;;;;;;;8352613;28;20111;-92
2023/06/15 07:11:41;;;;;;;19.05;11.90;;;;;;;;;;8369442;28;20049;-92
2023/06/15 07:15:44;;;;;;;15.05;10.10;;;;;;;;;;8356114;28;20095;-92
2023/06/15 07:19:47;;;;;;;18.17;11.82;;;;;;;;;;8357133;28;20545;-94
2023/06/15 07:23:51;;;;;;;16.15;10.18;;;;;;;;;;8354164;28;20118;-93
2023/06/15 07:27:55;;;;;;;18.60;10.82;;;;;;;;;;8369308;28;20041;-92
2023/06/15 07:31:59;;;;;;;13.63;9.73;;;;;;;;;;8355610;28;20072;-93
2023/06/15 07:36:02;;;;;;;10.15;7.82;;;;;;;;;;8362732;28;20114;-92
2023/06/15 07:40:07;;;;;;;10.00;7.90;;;;;;;;;;8355045;28;20045;-93
2023/06/15 07:44:14;;;;;;;9.45;7.45;;;;;;;;;;8371942;28;20099;-94
2023/06/15 07:48:17;;;;;;;10.75;8.60;;;;;;;;;;8361289;28;20049;-93
2023/06/15 07:52:21;;;;;;;10.95;7.18;;;;;;;;;;8367996;28;20041;-92
2023/06/15 07:56:24;;;;;;;9.40;7.13;;;;;;;;;;8368791;28;20049;-92
2023/06/15 08:00:30;;;;;;;9.60;7.22;;;;;;;;;;8354451;28;20041;-92
2023/06/15 08:04:33;;;;;;;13.35;7.82;;;;;;;;;;8367138;28;20048;-92
2023/06/15 08:08:36;;;;;;;9.80;7.30;;;;;;;;;;8368260;28;20528;-92
2023/06/15 08:12:39;;;;;;;9.02;6.78;;;;;;;;;;8367194;28;20055;-92
2023/06/15 08:16:44;;;;;;;8.80;5.05;;;;;;;;;;8367454;28;20041;-92
2023/06/15 08:20:47;;;;;;;10.98;6.10;;;;;;;;;;8347666;28;20049;-92
2023/06/15 08:24:50;;;;;;;8.95;5.85;;;;;;;;;;8366484;28;20087;-93
2023/06/15 08:28:53;;;;;;;7.38;5.65;;;;;;;;;;8358294;28;20421;-93
2023/06/15 08:32:57;;;;;;;8.65;5.57;;;;;;;;;;8367715;28;20040;-93
2023/06/15 08:37:01;;;;;;;7.72;5.38;;;;;;;;;;8367712;28;20065;-92
2023/06/15 08:41:05;;;;;;;9.45;5.28;;;;;;;;;;8365704;28;20052;-92
2023/06/15 08:45:09;;;;;;;11.25;6.07;;;;;;;;;;8365672;28;20064;-91
2023/06/15 08:49:14;;;;;;;8.68;6.35;;;;;;;;;;8365750;28;20072;-91
2023/06/15 08:53:18;;;;;;;8.18;5.60;;;;;;;;;;8364942;28;20135;-92
2023/06/15 08:57:22;;;;;;;10.98;7.30;;;;;;;;;;8368070;28;20045;-92
2023/06/15 09:01:25;;;;;;;9.20;6.72;;;;;;;;;;8365997;28;20053;-91
2023/06/15 09:05:30;;;;;;;10.75;6.63;;;;;;;;;;8364425;28;20128;-92
2023/06/15 09:09:33;;;;;;;8.30;6.78;;;;;;;;;;8364442;28;20045;-91
2023/06/15 09:13:37;;;;;;;10.13;6.53;;;;;;;;;;8364197;28;20489;-92
2023/06/15 09:17:41;;;;;;;6.97;5.68;;;;;;;;;;8351172;28;20123;-91
2023/06/15 09:21:52;;;;;;;8.90;5.70;;;;;;;;;;8359104;28;20051;-93
2023/06/15 09:25:56;;;;;;;8.25;6.32;;;;;;;;;;8338354;28;20060;-92
2023/06/15 09:30:03;;;;;;;8.38;5.90;;;;;;;;;;8338540;28;20087;-91
2023/06/15 09:34:08;;;;;;;8.32;5.68;;;;;;;;;;8330264;28;20049;-91
2023/06/15 09:38:13;;;;;;;6.93;5.50;;;;;;;;;;8330145;28;20045;-91
2023/06/15 09:42:16;;;;;;;7.72;5.60;;;;;;;;;;8340080;28;20051;-91
2023/06/15 09:46:20;;;;;;;7.18;5.70;;;;;;;;;;8341631;28;20500;-92
2023/06/15 09:50:29;;;;;;;7.85;5.63;;;;;;;;;;8332997;28;20416;-93
2023/06/15 09:54:34;;;;;;;9.05;5.50;;;;;;;;;;8344713;28;20068;-92
2023/06/15 09:58:37;;;;;;;7.43;6.03;;;;;;;;;;8342419;28;20196;-91
2023/06/15 10:02:42;;;;;;;7.95;5.53;;;;;;;;;;8325920;28;20049;-91
2023/06/15 10:06:50;;;;;;;8.48;5.85;;;;;;;;;;8341140;28;20056;-90
2023/06/15 10:10:56;;;;;;;10.18;6.20;;;;;;;;;;8339048;28;20076;-91
2023/06/15 12:33:05;;;;;;;11.65;8.32;;;;;;;;;;8466382;27;1919997;-91
2023/06/15 12:37:11;;;;;;;12.30;7.57;;;;;;;;;;8516406;27;20500;-88
2023/06/15 12:41:15;;;;;;;11.35;8.13;;;;;;;;;;8504688;27;20066;-89
2023/06/15 12:45:18;;;;;;;10.45;8.15;;;;;;;;;;8509113;27;20490;-92
2023/06/15 12:49:22;;;;;;;9.18;7.40;;;;;;;;;;8516442;27;20130;-91
2023/06/15 12:53:25;;;;;;;9.10;8.15;;;;;;;;;;8504663;27;20035;-89
2023/06/15 12:57:28;;;;;;;12.05;9.48;;;;;;;;;;8519155;27;20059;-90
2023/06/15 13:01:32;;;;;;;9.18;8.18;;;;;;;;;;8509956;27;20063;-96
2023/06/15 13:05:37;;;;;;;10.55;8.23;;;;;;;;;;8492052;27;20118;-92
2023/06/15 13:09:40;;;;;;;9.00;7.60;;;;;;;;;;8506666;27;20491;-89
2023/06/15 13:13:43;;;;;;;9.07;8.18;;;;;;;;;;8500667;27;20177;-89
2023/06/15 13:17:46;;;;;;;9.82;8.70;;;;;;;;;;8512253;27;20046;-93
2023/06/15 13:21:50;;;;;;;10.40;9.30;;;;;;;;;;8525714;27;20146;-93
2023/06/15 13:25:53;;;;;;;13.07;9.77;;;;;;;;;;8514891;27;20069;-94
2023/06/15 13:29:56;;;;;;;10.50;9.18;;;;;;;;;;8504989;27;20059;-90
2023/06/15 13:34:00;;;;;;;8.82;7.93;;;;;;;;;;8494917;27;20372;-90
2023/06/15 13:38:04;;;;;;;11.30;10.10;;;;;;;;;;8467319;28;20051;-91
2023/06/15 13:42:08;;;;;;;10.13;8.95;;;;;;;;;;8469300;28;20043;-93
2023/06/15 13:46:11;;;;;;;10.75;9.07;;;;;;;;;;8482275;27;20692;-87
2023/06/15 13:50:16;;;;;;;13.13;8.98;;;;;;;;;;8466792;27;20036;-89
2023/06/15 13:54:21;;;;;;;11.10;9.38;;;;;;;;;;8473397;27;20092;-90
2023/06/15 13:58:25;;;;;;;9.80;8.00;;;;;;;;;;8468103;28;20548;-95
2023/06/15 14:02:29;;;;;;;9.93;8.68;;;;;;;;;;8465701;27;20092;-90
2023/06/15 14:06:32;;;;;;;11.27;9.18;;;;;;;;;;8492530;27;20479;-93
2023/06/15 14:10:37;;;;;;;12.65;8.48;;;;;;;;;;8468464;28;20051;-92
2023/06/15 14:14:40;;;;;;;11.63;10.20;;;;;;;;;;8472689;27;20051;-94
2023/06/15 14:18:43;;;;;;;9.15;8.18;;;;;;;;;;8483198;27;20498;-91
2023/06/15 14:22:46;;;;;;;10.63;9.25;;;;;;;;;;8467695;28;20042;-91
2023/06/15 14:26:50;;;;;;;10.75;9.15;;;;;;;;;;8470013;27;20134;-94
2023/06/15 14:30:53;;;;;;;10.02;8.95;;;;;;;;;;8500612;27;20079;-93
2023/06/15 14:34:57;;;;;;;11.13;9.05;;;;;;;;;;8481110;27;20482;-95
2023/06/15 14:39:01;;;;;;;10.77;8.43;;;;;;;;;;8467713;28;20149;-93
2023/06/15 14:43:06;;;;;;;10.30;9.30;;;;;;;;;;8500934;27;20084;-91
2023/06/15 14:47:09;;;;;;;10.98;8.60;;;;;;;;;;8501531;27;20651;-92
2023/06/15 14:51:11;;;;;;;13.23;9.13;;;;;;;;;;8455021;27;20058;-92
2023/06/15 14:55:14;;;;;;;13.20;10.00;;;;;;;;;;8487461;27;20410;-90
2023/06/15 14:59:19;;;;;;;10.00;8.50;;;;;;;;;;8494032;27;20536;-92
2023/06/15 15:03:22;;;;;;;11.07;8.02;;;;;;;;;;8479456;27;20035;-92
2023/06/15 15:07:25;;;;;;;12.10;9.38;;;;;;;;;;8484642;27;20043;-90
2023/06/15 15:11:32;;;;;;;11.35;8.95;;;;;;;;;;8482194;27;20047;-89
2023/06/15 15:15:55;;;;;;;10.13;7.97;;;;;;;;;;8480972;27;20051;-90
2023/06/15 15:19:58;;;;;;;8.52;6.18;;;;;;;;;;8488351;27;20070;-92
2023/06/15 15:24:06;;;;;;;7.65;6.70;;;;;;;;;;8475697;27;20051;-91
2023/06/15 15:28:13;;;;;;;8.88;6.82;;;;;;;;;;8480602;27;20043;-90
2023/06/15 15:32:19;;;;;;;8.35;6.63;;;;;;;;;;8474697;27;20134;-93
2023/06/15 15:36:22;;;;;;;8.13;6.40;;;;;;;;;;8467622;27;20058;-91
2023/06/15 15:40:25;;;;;;;8.82;7.22;;;;;;;;;;8480174;27;20078;-90
2023/06/15 15:44:28;;;;;;;9.10;6.50;;;;;;;;;;8490299;27;20050;-90
2023/06/15 15:48:33;;;;;;;10.38;7.47;;;;;;;;;;8491679;27;20054;-92
2023/06/15 15:52:36;;;;;;;9.70;7.68;;;;;;;;;;8472258;27;20043;-89
2023/06/15 15:56:40;;;;;;;9.50;8.18;;;;;;;;;;8478268;27;20097;-90
2023/06/15 16:00:51;;;;;;;8.02;7.20;;;;;;;;;;8496216;27;20047;-90
2023/06/15 16:04:56;;;;;;;8.63;7.22;;;;;;;;;;8488141;27;20055;-91
2023/06/15 16:08:59;;;;;;;8.70;6.70;;;;;;;;;;8487343;27;20099;-89
2023/06/15 16:13:03;;;;;;;11.50;7.10;;;;;;;;;;8473943;27;20070;-89
2023/06/15 16:17:06;;;;;;;11.00;7.97;;;;;;;;;;8484434;27;20520;-89
2023/06/15 16:21:11;;;;;;;13.18;8.27;;;;;;;;;;8483957;28;20043;-90
2023/06/15 16:25:14;;;;;;;9.35;7.65;;;;;;;;;;8493994;28;20050;-89
2023/06/15 16:29:17;;;;;;;10.93;8.13;;;;;;;;;;8472138;28;20046;-89
2023/06/15 16:33:20;;;;;;;9.98;8.45;;;;;;;;;;8485711;28;20046;-89
2023/06/15 16:37:24;;;;;;;11.80;8.38;;;;;;;;;;8456893;28;20415;-92
2023/06/15 16:41:30;;;;;;;11.30;8.57;;;;;;;;;;8479235;28;20051;-89
2023/06/15 16:45:33;;;;;;;11.80;8.90;;;;;;;;;;8466099;28;20039;-90
2023/06/15 16:49:37;;;;;;;11.07;8.75;;;;;;;;;;8476728;28;20573;-93
2023/06/15 16:53:46;;;;;;;13.85;8.80;;;;;;;;;;8480998;28;20101;-89
2023/06/15 16:57:50;;;;;;;12.80;8.90;;;;;;;;;;8486771;28;20130;-89
2023/06/15 17:01:54;;;;;;;10.60;9.05;;;;;;;;;;8473192;28;20398;-90
2023/06/15 17:05:57;;;;;;;11.57;8.88;;;;;;;;;;8480913;27;20051;-90
2023/06/15 17:10:02;;;;;;;15.05;9.82;;;;;;;;;;8481158;27;20047;-89
2023/06/15 17:14:05;;;;;;;10.98;8.75;;;;;;;;;;8484621;27;20073;-89
2023/06/15 17:18:09;;;;;;;11.20;8.40;;;;;;;;;;8477575;27;20058;-89
2023/06/15 17:22:13;;;;;;;13.27;9.70;;;;;;;;;;8487360;27;20046;-91
2023/06/15 17:26:19;;;;;;;12.02;8.93;;;;;;;;;;8478058;27;20139;-90
2023/06/15 17:30:23;;;;;;;15.68;9.63;;;;;;;;;;8492914;27;20525;-89
2023/06/15 17:34:26;;;;;;;13.30;9.80;;;;;;;;;;8490908;27;20047;-90
2023/06/15 17:38:29;;;;;;;12.57;10.40;;;;;;;;;;8478447;27;20047;-91
2023/06/15 17:42:34;;;;;;;12.55;10.45;;;;;;;;;;8485892;27;20108;-89
2023/06/15 17:46:37;;;;;;;12.85;10.88;;;;;;;;;;8498496;27;20502;-90
2023/06/15 17:50:41;;;;;;;12.68;10.77;;;;;;;;;;8480804;27;20040;-90
2023/06/15 17:54:44;;;;;;;13.43;11.73;;;;;;;;;;8500443;27;20053;-88
2023/06/15 17:58:49;;;;;;;16.00;13.32;;;;;;;;;;8498774;27;20043;-88
2023/06/15 18:02:52;;;;;;;19.13;14.90;;;;;;;;;;8477749;27;20122;-88
2023/06/15 18:06:55;;;;;;;18.67;13.98;;;;;;;;;;8475185;27;20078;-89
2023/06/15 18:10:58;;;;;;;20.40;16.27;;;;;;;;;;8484689;27;20054;-88
2023/06/15 18:15:03;;;;;;;20.85;17.17;;;;;;;;;;8500467;27;20039;-89
2023/06/15 18:19:06;;;;;;;23.50;18.52;;;;;;;;;;8480413;27;20122;-88
2023/06/15 18:23:10;;;;;;;23.23;19.65;;;;;;;;;;8466215;28;20082;-88
2023/06/15 18:27:13;;;;;;;24.63;20.67;;;;;;;;;;8481382;27;20422;-87
2023/06/15 18:31:17;;;;;;;24.42;21.77;;;;;;;;;;8499871;27;20414;-87
2023/06/15 18:35:21;;;;;;;25.27;21.35;;;;;;;;;;8499705;27;20066;-87
2023/06/15 18:39:24;;;;;;;26.63;23.05;;;;;;;;;;8480102;27;20073;-87
2023/06/15 18:43:32;;;;;;;26.60;22.92;;;;;;;;;;8478347;27;20043;-88
2023/06/15 18:47:37;;;;;;;28.17;25.02;;;;;;;;;;8499254;27;20043;-88
2023/06/15 18:51:40;;;;;;;27.25;24.33;;;;;;;;;;8498812;27;20035;-88
2023/06/15 18:55:43;;;;;;;28.50;25.38;;;;;;;;;;8496686;27;20043;-88
2023/06/15 18:59:46;;;;;;;30.13;26.60;;;;;;;;;;8488065;27;20422;-88
2023/06/15 19:03:51;;;;;;;31.30;26.98;;;;;;;;;;8469605;27;20067;-88
2023/06/15 19:07:54;;;;;;;32.10;27.90;;;;;;;;;;8467264;27;20047;-91
2023/06/15 19:11:58;;;;;;;36.33;29.70;;;;;;;;;;8466796;28;20050;-87
2023/06/15 19:16:02;;;;;;;35.72;30.27;;;;;;;;;;8465302;28;20043;-88
2023/06/15 19:20:08;;;;;;;39.97;32.33;;;;;;;;;;8470663;28;20045;-87
2023/06/15 19:24:12;;;;;;;82.53;47.20;;;;;;;;;;8482847;27;20065;-88
2023/06/15 19:28:33;;;;;;;;;;;;;;;;;;;;;
2023/06/15 19:37:33;;;;;;;78.68;47.92;;;;;;;;;;8433910;28;20043;-88
2023/06/15 19:41:37;;;;;;;55.80;40.25;;;;;;;;;;8468376;28;20051;-89
2023/06/15 19:45:41;;;;;;;52.70;37.92;;;;;;;;;;8465026;28;20048;-89
2023/06/15 19:49:53;;;;;;;46.15;35.15;;;;;;;;;;8452022;28;20118;-89
2023/06/15 19:54:00;;;;;;;44.75;34.30;;;;;;;;;;8453286;28;20048;-88
2023/06/15 19:58:03;;;;;;;42.58;34.17;;;;;;;;;;8431312;28;20048;-89
2023/06/15 20:02:06;;;;;;;42.22;34.70;;;;;;;;;;8432293;28;20475;-88
2023/06/15 20:06:12;;;;;;;48.60;38.67;;;;;;;;;;8431484;28;20042;-88
2023/06/15 20:10:18;;;;;;;45.33;37.05;;;;;;;;;;8442719;28;20054;-89
2023/06/15 20:14:22;;;;;;;44.70;35.63;;;;;;;;;;8465262;28;20558;-89
2023/06/15 20:18:25;;;;;;;49.75;37.30;;;;;;;;;;8439418;28;20078;-93
2023/06/15 20:22:28;;;;;;;60.30;43.40;;;;;;;;;;8430135;28;20040;-88
2023/06/15 20:26:33;;;;;;;56.45;40.95;;;;;;;;;;8455922;28;20448;-88
2023/06/15 20:30:36;;;;;;;69.53;45.50;;;;;;;;;;8468862;28;20533;-88
2023/06/15 20:34:39;;;;;;;95.95;50.38;;;;;;;;;;8496673;28;20039;-88
2023/06/15 20:38:42;;;;;;;84.03;50.20;;;;;;;;;;8486454;28;20047;-88
2023/06/15 20:42:46;;;;;;;82.22;47.75;;;;;;;;;;8470919;27;20041;-88
2023/06/15 20:46:51;;;;;;;78.78;47.45;;;;;;;;;;8504146;27;20405;-88
2023/06/15 20:50:55;;;;;;;140.93;83.50;;;;;;;;;;8503654;27;20210;-87
2023/06/15 20:54:58;;;;;;;135.10;78.97;;;;;;;;;;8503735;27;20051;-88
2023/06/15 20:59:02;;;;;;;136.52;79.70;;;;;;;;;;8499752;27;20081;-89
2023/06/15 21:03:06;;;;;;;81.63;51.42;;;;;;;;;;8470562;28;20043;-90
2023/06/15 21:07:11;;;;;;;77.32;46.97;;;;;;;;;;8500127;27;20043;-93
2023/06/15 21:11:14;;;;;;;92.30;57.38;;;;;;;;;;8473280;28;20067;-89
2023/06/15 21:15:21;;;;;;;73.70;44.80;;;;;;;;;;8473461;28;20040;-89
2023/06/15 21:19:25;;;;;;;72.95;42.47;;;;;;;;;;8475515;28;20156;-89
2023/06/15 21:23:54;;;;;;;75.57;45.63;;;;;;;;;;8497701;27;20050;-90
2023/06/15 21:37:40;;;;;;;77.38;45.65;;;;;;;;;;8505656;27;20043;-90
2023/06/15 21:42:14;;;;;;;58.72;39.10;;;;;;;;;;8496022;28;20047;-90
2023/06/15 21:51:06;;;;;;;65.43;41.67;;;;;;;;;;8465153;28;20036;-90
2023/06/15 21:59:49;;;;;;;73.97;45.15;;;;;;;;;;8451882;28;20644;-91
2023/06/15 22:03:55;;;;;;;81.78;45.90;;;;;;;;;;8475794;27;20479;-90
2023/06/15 22:08:07;;;;;;;86.03;48.17;;;;;;;;;;8500227;27;20119;-90
2023/06/15 22:12:13;;;;;;;85.90;48.80;;;;;;;;;;8480132;28;20055;-91
2023/06/15 22:16:25;;;;;;;84.10;49.13;;;;;;;;;;8484776;27;20123;-89
2023/06/15 22:20:39;;;;;;;85.40;48.70;;;;;;;;;;8508670;27;20047;-90
2023/06/15 22:25:01;;;;;;;90.90;49.65;;;;;;;;;;8474992;27;20055;-89
2023/06/15 22:29:21;;;;;;;96.60;50.30;;;;;;;;;;8505773;27;20088;-91
2023/06/15 22:33:48;;;;;;;88.22;48.15;;;;;;;;;;8505988;27;20058;-93
2023/06/15 22:38:09;;;;;;;91.47;49.00;;;;;;;;;;8454531;28;20055;-92
2023/06/15 22:42:15;;;;;;;87.43;48.58;;;;;;;;;;8495593;28;20058;-91
2023/06/15 22:46:46;;;;;;;72.13;43.55;;;;;;;;;;8512216;27;20043;-90
2023/06/15 23:18:40;;;;;;;98.35;53.30;;;;;;;;;;8513001;27;20068;-92
2023/06/15 23:23:37;;;;;;;100.80;51.80;;;;;;;;;;8421967;28;20072;-91
2023/06/15 23:33:00;;;;;;;83.82;49.63;;;;;;;;;;8386945;28;20067;-91
2023/06/15 23:37:24;;;;;;;97.03;50.10;;;;;;;;;;8425233;28;20103;-91
2023/06/15 23:41:32;;;;;;;95.80;50.85;;;;;;;;;;8405319;28;20056;-90
2023/06/15 23:45:36;;;;;;;76.45;46.03;;;;;;;;;;8410153;28;20082;-91
2023/06/15 23:49:42;;;;;;;58.35;37.13;;;;;;;;;;8411707;28;20117;-92
2023/06/15 23:54:00;;;;;;;63.25;40.83;;;;;;;;;;8470795;27;20166;-90
2023/06/15 23:58:09;;;;;;;68.95;43.40;;;;;;;;;;8478515;28;20075;-90
